createdAt,value
2023-04-23T00:01:05.603Z,100153.30
2023-04-23T00:06:10.242Z,100145.89
2023-04-23T00:11:12.248Z,100145.35
2023-04-23T00:16:14.815Z,100148.23
2023-04-23T00:21:16.365Z,100148.68
2023-04-23T00:26:18.548Z,100149.48
2023-04-23T00:31:22.617Z,100147.36
2023-04-23T00:36:24.421Z,100141.45
2023-04-23T00:41:28.304Z,100137.25
2023-04-23T00:46:30.100Z,100131.66
2023-04-23T00:51:34.547Z,100135.34
2023-04-23T00:56:36.657Z,100137.80
2023-04-23T01:01:38.315Z,100137.03
2023-04-23T01:06:41.377Z,100138.68
2023-04-23T01:11:44.525Z,100134.89
2023-04-23T01:16:47.127Z,100138.95
2023-04-23T01:21:50.393Z,100139.55
2023-04-23T01:26:52.827Z,100142.55
2023-04-23T01:31:55.663Z,100140.56
2023-04-23T01:36:58.660Z,100138.94
2023-04-23T01:42:01.438Z,100141.74
2023-04-23T01:47:05.680Z,100136.46
2023-04-23T01:52:08.782Z,100135.83
2023-04-23T01:57:10.809Z,100135.23
2023-04-23T02:02:13.999Z,100136.67
2023-04-23T02:07:15.640Z,100137.62
2023-04-23T02:12:17.192Z,100146.13
2023-04-23T02:17:21.653Z,100145.45
2023-04-23T02:22:25.220Z,100143.20
2023-04-23T02:27:26.868Z,100133.92
2023-04-23T02:32:28.373Z,100141.23
2023-04-23T02:37:29.891Z,100142.59
2023-04-23T02:42:31.431Z,100142.39
2023-04-23T02:47:33.012Z,100140.42
2023-04-23T02:52:34.741Z,100135.34
2023-04-23T02:57:37.099Z,100138.27
2023-04-23T03:02:38.740Z,100137.05
2023-04-23T03:07:40.739Z,100136.36
2023-04-23T03:12:42.357Z,100133.96
2023-04-23T03:17:43.899Z,100133.09
2023-04-23T03:22:46.089Z,100131.70
2023-04-23T03:27:47.601Z,100128.42
2023-04-23T03:32:50.687Z,100127.84
2023-04-23T03:37:52.817Z,100128.61
2023-04-23T03:42:54.324Z,100127.37
2023-04-23T03:47:55.950Z,100123.20
2023-04-23T03:52:57.523Z,100125.17
2023-04-23T03:58:01.721Z,100125.95
2023-04-23T04:03:04.278Z,100128.78
2023-04-23T04:08:06.293Z,100133.14
2023-04-23T04:13:07.886Z,100133.17
2023-04-23T04:18:09.879Z,100131.14
2023-04-23T04:23:11.658Z,100134.87
2023-04-23T04:28:13.164Z,100133.77
2023-04-23T04:33:15.083Z,100130.83
2023-04-23T04:38:16.551Z,100129.39
2023-04-23T04:43:18.531Z,100132.21
2023-04-23T04:48:20.713Z,100130.92
2023-04-23T04:53:22.502Z,100132.56
2023-04-23T04:58:24.069Z,100131.96
2023-04-23T05:03:26.934Z,100133.52
2023-04-23T05:08:28.678Z,100136.34
2023-04-23T05:13:30.176Z,100134.11
2023-04-23T05:18:31.649Z,100130.92
2023-04-23T05:23:34.687Z,100131.33
2023-04-23T05:28:36.359Z,100128.31
2023-04-23T05:33:49.105Z,100133.23
2023-04-23T05:38:52.685Z,100132.61
2023-04-23T05:43:54.193Z,100130.14
2023-04-23T05:48:55.761Z,100128.77
2023-04-23T05:53:57.292Z,100125.84
2023-04-23T05:58:58.866Z,100123.88
2023-04-23T06:04:00.494Z,100122.77
2023-04-23T06:09:02.484Z,100124.59
2023-04-23T06:14:04.702Z,100123.55
2023-04-23T06:19:06.656Z,100124.27
2023-04-23T06:24:08.229Z,100123.48
2023-04-23T06:29:09.756Z,100125.98
2023-04-23T06:34:11.274Z,100122.58
2023-04-23T06:39:12.792Z,100115.77
2023-04-23T06:44:14.268Z,100119.38
2023-04-23T06:49:16.046Z,100118.35
2023-04-23T06:54:17.548Z,100114.95
2023-04-23T06:59:19.723Z,100114.52
2023-04-23T07:04:21.313Z,100110.77
2023-04-23T07:09:23.344Z,100109.11
2023-04-23T07:14:25.351Z,100106.70
2023-04-23T07:19:27.609Z,100106.21
2023-04-23T07:24:29.406Z,100107.38
2023-04-23T07:29:31.003Z,100106.17
2023-04-23T07:34:32.666Z,100103.27
2023-04-23T07:39:34.521Z,100103.30
2023-04-23T07:44:36.290Z,100093.42
2023-04-23T07:49:37.798Z,100095.52
2023-04-23T07:54:39.430Z,100091.88
2023-04-23T07:59:41.186Z,100090.57
2023-04-23T08:04:43.094Z,100086.94
2023-04-23T08:09:45.309Z,100089.55
2023-04-23T08:14:47.712Z,100086.86
2023-04-23T08:19:49.443Z,100082.15
2023-04-23T08:24:50.919Z,100074.91
2023-04-23T08:29:52.392Z,100075.00
2023-04-23T08:34:53.919Z,100069.49
2023-04-23T08:39:55.419Z,100070.11
2023-04-23T08:44:57.654Z,100067.53
2023-04-23T08:49:59.862Z,100068.20
2023-04-23T08:55:04.909Z,100065.63
2023-04-23T09:00:08.760Z,100058.17
2023-04-23T09:05:11.356Z,100050.13
2023-04-23T09:10:17.740Z,100048.17
2023-04-23T09:15:20.273Z,100041.38
2023-04-23T09:20:21.778Z,100038.09
2023-04-23T09:25:24.644Z,100032.15
2023-04-23T09:30:34.607Z,100031.95
2023-04-23T09:35:39.078Z,100026.25
2023-04-23T09:40:42.303Z,100021.67
2023-04-23T09:45:50.373Z,100016.67
2023-04-23T09:50:55.768Z,100011.79
2023-04-23T09:55:57.292Z,100008.54
2023-04-23T10:01:09.596Z,100004.77
2023-04-23T10:06:30.501Z,99996.13
2023-04-23T10:11:38.265Z,99988.77
2023-04-23T10:16:48.593Z,99985.76
2023-04-23T10:22:02.273Z,99978.96
2023-04-23T10:27:23.961Z,99968.11
2023-04-23T10:32:30.814Z,99967.19
2023-04-23T10:37:33.488Z,99962.11
2023-04-23T10:42:35.799Z,99960.16
2023-04-23T10:47:37.876Z,99957.62
2023-04-23T10:52:39.473Z,99955.04
2023-04-23T10:58:01.665Z,99944.08
2023-04-23T11:03:03.977Z,99939.27
2023-04-23T11:08:18.834Z,99928.98
2023-04-23T11:13:25.069Z,99929.20
2023-04-23T11:18:27.555Z,99928.16
2023-04-23T11:23:32.480Z,99922.21
2023-04-23T11:28:36.653Z,99920.94
2023-04-23T11:33:38.609Z,99913.14
2023-04-23T11:38:40.090Z,99909.54
2023-04-23T11:43:43.374Z,99906.89
2023-04-23T11:48:44.908Z,99905.17
2023-04-23T11:53:47.393Z,99898.85
2023-04-23T11:58:58.849Z,99887.48
2023-04-23T12:04:01.088Z,99878.93
2023-04-23T12:09:03.592Z,99880.95
2023-04-23T12:14:05.450Z,99879.86
2023-04-23T12:19:21.357Z,99867.99
2023-04-23T12:24:24.418Z,99869.45
2023-04-23T12:29:26.889Z,99865.35
2023-04-23T12:34:28.456Z,99859.34
2023-04-23T12:39:35.027Z,99853.34
2023-04-23T12:44:39.366Z,99849.45
2023-04-23T12:49:43.208Z,99844.09
2023-04-23T12:54:45.153Z,99847.52
2023-04-23T12:59:46.624Z,99842.56
2023-04-23T13:04:48.211Z,99836.96
2023-04-23T13:09:49.693Z,99824.16
2023-04-23T13:14:51.219Z,99818.17
2023-04-23T13:19:57.246Z,99806.95
2023-04-23T13:24:59.691Z,99798.73
2023-04-23T13:30:01.200Z,99793.88
2023-04-23T13:35:05.051Z,99790.47
2023-04-23T13:40:07.656Z,99788.95
2023-04-23T13:45:09.650Z,99778.98
2023-04-23T13:50:11.681Z,99773.55
2023-04-23T13:55:13.204Z,99772.05
2023-04-23T14:00:16.038Z,99768.79
2023-04-23T14:05:17.678Z,99758.75
2023-04-23T14:10:19.273Z,99755.51
2023-04-23T14:15:20.923Z,99746.67
2023-04-23T14:20:22.816Z,99738.29
2023-04-23T14:25:35.805Z,99737.03
2023-04-23T14:30:41.016Z,99729.65
2023-04-23T14:35:43.589Z,99725.20
2023-04-23T14:40:45.512Z,99724.84
2023-04-23T14:45:47.461Z,99724.34
2023-04-23T14:50:49.078Z,99725.34
2023-04-23T14:55:51.368Z,99723.52
2023-04-23T15:00:53.226Z,99713.50
2023-04-23T15:05:54.788Z,99713.99
2023-04-23T15:10:56.268Z,99713.50
2023-04-23T15:16:03.078Z,99708.23
2023-04-23T15:21:04.602Z,99706.65
2023-04-23T15:26:06.368Z,99703.73
2023-04-23T15:31:09.216Z,99699.07
2023-04-23T15:36:10.688Z,99699.21
2023-04-23T15:41:14.843Z,99690.83
2023-04-23T15:46:16.395Z,99689.52
2023-04-23T15:51:18.039Z,99686.80
2023-04-23T15:56:19.595Z,99688.63
2023-04-23T16:01:21.548Z,99684.55
2023-04-23T16:06:23.240Z,99677.14
2023-04-23T16:11:27.734Z,99674.90
2023-04-23T16:16:30.862Z,99672.86
2023-04-23T16:21:32.788Z,99672.12
2023-04-23T16:26:34.833Z,99673.23
2023-04-23T16:31:36.923Z,99669.45
2023-04-23T16:36:38.687Z,99671.25
2023-04-23T16:41:40.416Z,99668.10
2023-04-23T16:46:42.124Z,99667.87
2023-04-23T16:51:43.689Z,99669.22
2023-04-23T16:56:46.093Z,99661.21
2023-04-23T17:01:47.553Z,99658.83
2023-04-23T17:06:49.324Z,99659.59
2023-04-23T17:11:51.105Z,99657.22
2023-04-23T17:16:52.594Z,99651.64
2023-04-23T17:21:54.082Z,99656.64
2023-04-23T17:26:56.885Z,99652.77
2023-04-23T17:31:58.689Z,99647.73
2023-04-23T17:37:00.285Z,99651.37
2023-04-23T17:42:02.087Z,99648.61
2023-04-23T17:47:03.648Z,99645.27
2023-04-23T17:52:06.408Z,99646.94
2023-04-23T17:57:09.834Z,99641.75
2023-04-23T18:02:11.618Z,99640.89
2023-04-23T18:07:13.470Z,99647.41
2023-04-23T18:12:14.981Z,99651.14
2023-04-23T18:17:17.520Z,99651.20
2023-04-23T18:22:19.660Z,99651.86
2023-04-23T18:27:21.128Z,99654.80
2023-04-23T18:32:33.637Z,99656.60
2023-04-23T18:37:59.325Z,99656.73
2023-04-23T18:43:01.543Z,99654.33
2023-04-23T18:48:23.372Z,99652.73
2023-04-23T18:53:25.073Z,99652.55
2023-04-23T18:58:27.277Z,99652.01
2023-04-23T19:03:31.418Z,99654.14
2023-04-23T19:08:34.053Z,99653.09
2023-04-23T19:13:35.628Z,99651.03
2023-04-23T19:18:37.399Z,99650.41
2023-04-23T19:23:39.048Z,99649.27
2023-04-23T19:28:40.625Z,99650.88
2023-04-23T19:33:45.402Z,99648.08
2023-04-23T19:38:47.056Z,99648.48
2023-04-23T19:43:48.541Z,99644.62
2023-04-23T19:48:50.041Z,99644.11
2023-04-23T19:53:54.101Z,99642.84
2023-04-23T19:58:55.944Z,99637.77
2023-04-23T20:03:57.613Z,99635.14
2023-04-23T20:09:18.104Z,99631.84
2023-04-23T20:14:19.945Z,99630.16
2023-04-23T20:19:21.682Z,99626.89
2023-04-23T20:24:23.207Z,99621.09
2023-04-23T20:29:24.881Z,99616.43
2023-04-23T20:34:26.359Z,99624.92
2023-04-23T20:39:28.046Z,99622.00
2023-04-23T20:44:29.622Z,99620.70
2023-04-23T20:49:32.266Z,99618.05
2023-04-23T20:54:34.951Z,99620.70
2023-04-23T20:59:36.604Z,99623.18
2023-04-23T21:04:38.536Z,99617.79
2023-04-23T21:09:54.104Z,99618.08
2023-04-23T21:14:55.647Z,99615.14
2023-04-23T21:19:57.202Z,99614.40
2023-04-23T21:24:58.711Z,99609.48
2023-04-23T21:30:18.027Z,99603.91
2023-04-23T21:35:19.726Z,99605.79
2023-04-23T21:40:21.238Z,99606.19
2023-04-23T21:45:22.862Z,99605.23
2023-04-23T21:50:25.637Z,99604.73
2023-04-23T21:55:28.948Z,99607.20
2023-04-23T22:00:30.489Z,99608.64
2023-04-23T22:05:32.049Z,99604.89
2023-04-23T22:10:34.040Z,99604.55
2023-04-23T22:15:36.342Z,99625.30
2023-04-23T22:20:39.135Z,99629.32
2023-04-23T22:25:40.643Z,99632.54
2023-04-23T22:30:42.563Z,99630.80
2023-04-23T22:35:44.055Z,99629.05
2023-04-23T22:40:45.569Z,99625.61
2023-04-23T22:45:47.128Z,99614.44
2023-04-23T22:50:51.155Z,99619.94
2023-04-23T22:55:52.899Z,99615.39
2023-04-23T23:00:55.552Z,99609.57
2023-04-23T23:05:57.230Z,99603.97
2023-04-23T23:10:58.768Z,99597.31
2023-04-23T23:16:04.696Z,99594.67
2023-04-23T23:21:06.535Z,99592.61
2023-04-23T23:26:08.304Z,99584.73
2023-04-23T23:31:10.146Z,99581.40
2023-04-23T23:36:11.972Z,99575.31
2023-04-23T23:41:13.448Z,99574.20
2023-04-23T23:46:18.333Z,99574.73
2023-04-23T23:51:20.275Z,99567.43
2023-04-23T23:56:21.905Z,99563.89
